Terminal Aerodrome Forecast
Issued by NWS Jackson, MS

Home | Current Version | Previous Version | Text Only | Print | Product List | Glossary On
Versions: 1 2 3 4 5 6 7 8 9 10 11 12 13 14 15 16
000
FTUS44 KJAN 022300
TAFHBG
TAF
KHBG 022320Z 0300/0324 05003KT 3SM -RA BR OVC003
     FM030200 04003KT 1 1/2SM BR OVC002
     FM030300 10003KT 1/4SM FG OVC001
     FM031500 16005KT 1/2SM FG OVC001
     FM031600 17007KT 1 1/2SM BR OVC003
     FM031800 18008KT 4SM BR OVC015
     FM032000 18010KT P6SM OVC025=

USA.gov is the U.S. government's official web portal to all federal, state and local government web resources and services.